sensor_id;sensor_type;location;lat;lon;timestamp;P1;durP1;ratioP1;P2;durP2;ratioP2
67053;SDS011;53960;51.826;5.850;2024-03-08T00:00:14;26.13;;;12.85;;
67053;SDS011;53960;51.826;5.850;2024-03-08T00:02:42;25.30;;;12.48;;
67053;SDS011;53960;51.826;5.850;2024-03-08T00:05:08;30.13;;;12.80;;
67053;SDS011;53960;51.826;5.850;2024-03-08T00:07:37;24.17;;;12.10;;
67053;SDS011;53960;51.826;5.850;2024-03-08T00:10:03;25.52;;;11.68;;
67053;SDS011;53960;51.826;5.850;2024-03-08T00:12:30;25.10;;;12.35;;
67053;SDS011;53960;51.826;5.850;2024-03-08T00:14:55;23.33;;;11.37;;
67053;SDS011;53960;51.826;5.850;2024-03-08T00:17:21;27.50;;;11.93;;
67053;SDS011;53960;51.826;5.850;2024-03-08T00:19:51;25.50;;;12.00;;
67053;SDS011;53960;51.826;5.850;2024-03-08T00:22:16;27.37;;;12.07;;
67053;SDS011;53960;51.826;5.850;2024-03-08T00:24:42;25.20;;;12.77;;
67053;SDS011;53960;51.826;5.850;2024-03-08T00:27:08;26.40;;;12.25;;
67053;SDS011;53960;51.826;5.850;2024-03-08T00:29:34;25.27;;;12.23;;
67053;SDS011;53960;51.826;5.850;2024-03-08T00:31:59;25.73;;;11.30;;
67053;SDS011;53960;51.826;5.850;2024-03-08T00:34:25;23.37;;;11.23;;
67053;SDS011;53960;51.826;5.850;2024-03-08T00:36:50;24.48;;;11.45;;
67053;SDS011;53960;51.826;5.850;2024-03-08T00:39:17;23.77;;;11.93;;
67053;SDS011;53960;51.826;5.850;2024-03-08T00:41:44;24.13;;;12.73;;
67053;SDS011;53960;51.826;5.850;2024-03-08T00:44:10;26.57;;;12.23;;
67053;SDS011;53960;51.826;5.850;2024-03-08T00:46:35;26.80;;;11.30;;
67053;SDS011;53960;51.826;5.850;2024-03-08T00:49:00;23.73;;;11.38;;
67053;SDS011;53960;51.826;5.850;2024-03-08T00:51:26;24.23;;;11.93;;
67053;SDS011;53960;51.826;5.850;2024-03-08T00:53:52;24.73;;;12.93;;
67053;SDS011;53960;51.826;5.850;2024-03-08T00:56:17;23.53;;;11.70;;
67053;SDS011;53960;51.826;5.850;2024-03-08T00:58:42;23.93;;;10.97;;
67053;SDS011;53960;51.826;5.850;2024-03-08T01:01:08;26.60;;;12.57;;
67053;SDS011;53960;51.826;5.850;2024-03-08T01:03:34;27.30;;;12.25;;
67053;SDS011;53960;51.826;5.850;2024-03-08T01:06:00;24.75;;;12.65;;
67053;SDS011;53960;51.826;5.850;2024-03-08T01:08:26;25.87;;;12.10;;
67053;SDS011;53960;51.826;5.850;2024-03-08T01:10:52;24.63;;;11.18;;
67053;SDS011;53960;51.826;5.850;2024-03-08T01:13:17;24.00;;;11.70;;
67053;SDS011;53960;51.826;5.850;2024-03-08T01:15:44;24.85;;;12.10;;
67053;SDS011;53960;51.826;5.850;2024-03-08T01:18:09;26.27;;;11.17;;
67053;SDS011;53960;51.826;5.850;2024-03-08T01:20:35;23.57;;;11.67;;
67053;SDS011;53960;51.826;5.850;2024-03-08T01:23:00;25.30;;;12.70;;
67053;SDS011;53960;51.826;5.850;2024-03-08T01:25:26;23.57;;;11.83;;
67053;SDS011;53960;51.826;5.850;2024-03-08T01:27:52;24.30;;;11.97;;
67053;SDS011;53960;51.826;5.850;2024-03-08T01:30:18;24.97;;;12.00;;
67053;SDS011;53960;51.826;5.850;2024-03-08T01:32:44;23.70;;;12.65;;
67053;SDS011;53960;51.826;5.850;2024-03-08T01:35:09;26.90;;;12.40;;
67053;SDS011;53960;51.826;5.850;2024-03-08T01:37:35;22.97;;;11.60;;
67053;SDS011;53960;51.826;5.850;2024-03-08T01:40:00;22.88;;;12.15;;
67053;SDS011;53960;51.826;5.850;2024-03-08T01:42:26;25.23;;;11.60;;
67053;SDS011;53960;51.826;5.850;2024-03-08T01:44:51;24.33;;;12.03;;
67053;SDS011;53960;51.826;5.850;2024-03-08T01:47:17;27.33;;;12.23;;
67053;SDS011;53960;51.826;5.850;2024-03-08T01:49:43;23.58;;;11.95;;
67053;SDS011;53960;51.826;5.850;2024-03-08T01:52:09;24.85;;;12.00;;
67053;SDS011;53960;51.826;5.850;2024-03-08T01:54:35;24.90;;;12.03;;
67053;SDS011;53960;51.826;5.850;2024-03-08T01:57:01;28.33;;;12.50;;
67053;SDS011;53960;51.826;5.850;2024-03-08T01:59:26;22.93;;;12.20;;
67053;SDS011;53960;51.826;5.850;2024-03-08T02:01:53;23.63;;;12.53;;
67053;SDS011;53960;51.826;5.850;2024-03-08T02:04:20;24.60;;;11.82;;
67053;SDS011;53960;51.826;5.850;2024-03-08T02:06:46;23.45;;;11.85;;
67053;SDS011;53960;51.826;5.850;2024-03-08T02:09:13;22.90;;;11.27;;
67053;SDS011;53960;51.826;5.850;2024-03-08T02:11:40;23.50;;;11.83;;
67053;SDS011;53960;51.826;5.850;2024-03-08T02:14:06;22.20;;;11.60;;
67053;SDS011;53960;51.826;5.850;2024-03-08T02:16:31;22.53;;;12.27;;
67053;SDS011;53960;51.826;5.850;2024-03-08T02:18:57;22.95;;;11.85;;
67053;SDS011;53960;51.826;5.850;2024-03-08T02:21:23;22.83;;;12.40;;
67053;SDS011;53960;51.826;5.850;2024-03-08T02:23:49;25.55;;;12.57;;
67053;SDS011;53960;51.826;5.850;2024-03-08T02:26:17;25.67;;;12.27;;
67053;SDS011;53960;51.826;5.850;2024-03-08T02:28:42;24.23;;;12.25;;
67053;SDS011;53960;51.826;5.850;2024-03-08T02:31:09;22.80;;;11.80;;
67053;SDS011;53960;51.826;5.850;2024-03-08T02:33:34;23.45;;;11.95;;
67053;SDS011;53960;51.826;5.850;2024-03-08T02:36:00;23.43;;;11.80;;
67053;SDS011;53960;51.826;5.850;2024-03-08T02:38:25;25.27;;;12.40;;
67053;SDS011;53960;51.826;5.850;2024-03-08T02:40:51;25.23;;;12.52;;
67053;SDS011;53960;51.826;5.850;2024-03-08T02:43:18;23.63;;;11.83;;
67053;SDS011;53960;51.826;5.850;2024-03-08T02:45:45;23.70;;;12.07;;
67053;SDS011;53960;51.826;5.850;2024-03-08T02:48:11;25.77;;;12.68;;
67053;SDS011;53960;51.826;5.850;2024-03-08T02:50:38;24.23;;;12.43;;
67053;SDS011;53960;51.826;5.850;2024-03-08T02:53:09;24.80;;;13.17;;
67053;SDS011;53960;51.826;5.850;2024-03-08T02:55:36;25.60;;;12.52;;
67053;SDS011;53960;51.826;5.850;2024-03-08T02:58:02;25.30;;;12.50;;
67053;SDS011;53960;51.826;5.850;2024-03-08T03:00:29;23.05;;;12.02;;
67053;SDS011;53960;51.826;5.850;2024-03-08T03:02:56;23.85;;;12.38;;
67053;SDS011;53960;51.826;5.850;2024-03-08T03:05:22;26.10;;;13.10;;
67053;SDS011;53960;51.826;5.850;2024-03-08T03:07:48;27.08;;;12.32;;
67053;SDS011;53960;51.826;5.850;2024-03-08T03:10:14;27.00;;;12.80;;
67053;SDS011;53960;51.826;5.850;2024-03-08T03:12:42;24.92;;;13.48;;
67053;SDS011;53960;51.826;5.850;2024-03-08T03:15:07;25.40;;;12.65;;
67053;SDS011;53960;51.826;5.850;2024-03-08T03:17:33;24.25;;;12.80;;
67053;SDS011;53960;51.826;5.850;2024-03-08T03:19:59;26.17;;;13.80;;
67053;SDS011;53960;51.826;5.850;2024-03-08T03:22:24;27.60;;;13.83;;
67053;SDS011;53960;51.826;5.850;2024-03-08T03:24:50;26.27;;;12.52;;
67053;SDS011;53960;51.826;5.850;2024-03-08T03:27:16;26.92;;;13.65;;
67053;SDS011;53960;51.826;5.850;2024-03-08T03:29:42;25.27;;;12.47;;
67053;SDS011;53960;51.826;5.850;2024-03-08T03:32:13;27.98;;;14.35;;
67053;SDS011;53960;51.826;5.850;2024-03-08T03:34:39;27.83;;;12.60;;
67053;SDS011;53960;51.826;5.850;2024-03-08T03:37:06;25.67;;;13.20;;
67053;SDS011;53960;51.826;5.850;2024-03-08T03:39:33;25.10;;;12.23;;
67053;SDS011;53960;51.826;5.850;2024-03-08T03:41:59;28.52;;;13.73;;
67053;SDS011;53960;51.826;5.850;2024-03-08T03:44:27;23.83;;;12.32;;
67053;SDS011;53960;51.826;5.850;2024-03-08T03:46:52;26.60;;;12.80;;
67053;SDS011;53960;51.826;5.850;2024-03-08T03:49:18;26.37;;;13.33;;
67053;SDS011;53960;51.826;5.850;2024-03-08T03:51:43;26.63;;;13.52;;
67053;SDS011;53960;51.826;5.850;2024-03-08T03:54:09;26.50;;;13.60;;
67053;SDS011;53960;51.826;5.850;2024-03-08T03:56:35;27.25;;;13.23;;
67053;SDS011;53960;51.826;5.850;2024-03-08T03:59:00;26.97;;;13.13;;
67053;SDS011;53960;51.826;5.850;2024-03-08T04:01:25;27.03;;;12.97;;
67053;SDS011;53960;51.826;5.850;2024-03-08T04:03:51;25.37;;;12.97;;
67053;SDS011;53960;51.826;5.850;2024-03-08T04:06:16;30.23;;;13.70;;
67053;SDS011;53960;51.826;5.850;2024-03-08T04:08:42;28.92;;;14.32;;
67053;SDS011;53960;51.826;5.850;2024-03-08T04:11:07;25.97;;;13.07;;
67053;SDS011;53960;51.826;5.850;2024-03-08T04:13:35;27.05;;;13.73;;
67053;SDS011;53960;51.826;5.850;2024-03-08T04:16:01;29.43;;;14.07;;
67053;SDS011;53960;51.826;5.850;2024-03-08T04:18:27;25.40;;;13.07;;
67053;SDS011;53960;51.826;5.850;2024-03-08T04:20:53;27.70;;;13.97;;
67053;SDS011;53960;51.826;5.850;2024-03-08T04:23:18;26.73;;;14.27;;
67053;SDS011;53960;51.826;5.850;2024-03-08T04:25:44;28.15;;;13.48;;
67053;SDS011;53960;51.826;5.850;2024-03-08T04:28:09;27.17;;;14.38;;
67053;SDS011;53960;51.826;5.850;2024-03-08T04:30:38;28.20;;;14.63;;
67053;SDS011;53960;51.826;5.850;2024-03-08T04:33:07;25.42;;;13.35;;
67053;SDS011;53960;51.826;5.850;2024-03-08T04:35:33;28.52;;;13.50;;
67053;SDS011;53960;51.826;5.850;2024-03-08T04:37:59;28.53;;;14.17;;
67053;SDS011;53960;51.826;5.850;2024-03-08T04:40:24;27.73;;;13.90;;
67053;SDS011;53960;51.826;5.850;2024-03-08T04:42:49;26.92;;;14.57;;
67053;SDS011;53960;51.826;5.850;2024-03-08T04:45:16;25.73;;;13.00;;
67053;SDS011;53960;51.826;5.850;2024-03-08T04:47:42;24.98;;;12.20;;
67053;SDS011;53960;51.826;5.850;2024-03-08T04:50:07;30.83;;;16.20;;
67053;SDS011;53960;51.826;5.850;2024-03-08T04:52:34;30.58;;;14.52;;
67053;SDS011;53960;51.826;5.850;2024-03-08T04:54:59;26.90;;;13.67;;
67053;SDS011;53960;51.826;5.850;2024-03-08T04:57:24;28.10;;;13.13;;
67053;SDS011;53960;51.826;5.850;2024-03-08T04:59:50;28.20;;;13.93;;
67053;SDS011;53960;51.826;5.850;2024-03-08T05:02:16;29.93;;;14.23;;
67053;SDS011;53960;51.826;5.850;2024-03-08T05:04:42;27.70;;;13.90;;
67053;SDS011;53960;51.826;5.850;2024-03-08T05:07:07;28.47;;;13.93;;
67053;SDS011;53960;51.826;5.850;2024-03-08T05:09:32;29.50;;;14.13;;
67053;SDS011;53960;51.826;5.850;2024-03-08T05:11:58;26.35;;;12.68;;
67053;SDS011;53960;51.826;5.850;2024-03-08T05:14:24;31.33;;;13.80;;
67053;SDS011;53960;51.826;5.850;2024-03-08T05:16:50;29.45;;;14.65;;
67053;SDS011;53960;51.826;5.850;2024-03-08T05:19:16;26.80;;;13.27;;
67053;SDS011;53960;51.826;5.850;2024-03-08T05:21:43;29.58;;;14.52;;
67053;SDS011;53960;51.826;5.850;2024-03-08T05:24:11;28.10;;;13.27;;
67053;SDS011;53960;51.826;5.850;2024-03-08T05:26:38;33.33;;;15.27;;
67053;SDS011;53960;51.826;5.850;2024-03-08T05:29:04;30.50;;;13.67;;
67053;SDS011;53960;51.826;5.850;2024-03-08T05:31:29;29.30;;;14.07;;
67053;SDS011;53960;51.826;5.850;2024-03-08T05:34:03;27.88;;;14.20;;
67053;SDS011;53960;51.826;5.850;2024-03-08T05:36:28;26.33;;;14.07;;
67053;SDS011;53960;51.826;5.850;2024-03-08T05:38:54;27.87;;;13.50;;
67053;SDS011;53960;51.826;5.850;2024-03-08T05:41:19;27.43;;;14.30;;
67053;SDS011;53960;51.826;5.850;2024-03-08T05:43:45;28.45;;;13.88;;
67053;SDS011;53960;51.826;5.850;2024-03-08T05:46:10;28.63;;;14.03;;
67053;SDS011;53960;51.826;5.850;2024-03-08T05:48:36;28.02;;;14.20;;
67053;SDS011;53960;51.826;5.850;2024-03-08T05:51:02;28.30;;;14.20;;
67053;SDS011;53960;51.826;5.850;2024-03-08T05:53:28;29.92;;;13.95;;
67053;SDS011;53960;51.826;5.850;2024-03-08T05:55:56;27.08;;;13.82;;
67053;SDS011;53960;51.826;5.850;2024-03-08T05:58:22;31.27;;;14.27;;
67053;SDS011;53960;51.826;5.850;2024-03-08T06:00:47;29.63;;;14.30;;
67053;SDS011;53960;51.826;5.850;2024-03-08T06:03:13;30.53;;;14.37;;
67053;SDS011;53960;51.826;5.850;2024-03-08T06:05:38;29.37;;;14.40;;
67053;SDS011;53960;51.826;5.850;2024-03-08T06:08:06;30.77;;;13.75;;
67053;SDS011;53960;51.826;5.850;2024-03-08T06:10:32;26.57;;;13.77;;
67053;SDS011;53960;51.826;5.850;2024-03-08T06:12:58;28.50;;;14.30;;
67053;SDS011;53960;51.826;5.850;2024-03-08T06:15:24;31.98;;;15.20;;
67053;SDS011;53960;51.826;5.850;2024-03-08T06:17:50;30.50;;;14.37;;
67053;SDS011;53960;51.826;5.850;2024-03-08T06:20:17;30.60;;;14.88;;
67053;SDS011;53960;51.826;5.850;2024-03-08T06:22:43;33.33;;;15.17;;
67053;SDS011;53960;51.826;5.850;2024-03-08T06:25:10;33.35;;;15.48;;
67053;SDS011;53960;51.826;5.850;2024-03-08T06:27:38;32.33;;;14.95;;
67053;SDS011;53960;51.826;5.850;2024-03-08T06:30:05;30.25;;;14.15;;
67053;SDS011;53960;51.826;5.850;2024-03-08T06:32:31;29.37;;;12.70;;
67053;SDS011;53960;51.826;5.850;2024-03-08T06:35:00;31.02;;;14.88;;
67053;SDS011;53960;51.826;5.850;2024-03-08T06:37:26;30.23;;;14.73;;
67053;SDS011;53960;51.826;5.850;2024-03-08T06:39:51;29.40;;;14.23;;
67053;SDS011;53960;51.826;5.850;2024-03-08T06:42:19;29.60;;;14.18;;
67053;SDS011;53960;51.826;5.850;2024-03-08T06:44:44;29.67;;;14.40;;
67053;SDS011;53960;51.826;5.850;2024-03-08T06:47:15;29.63;;;14.88;;
67053;SDS011;53960;51.826;5.850;2024-03-08T06:49:41;29.77;;;15.25;;
67053;SDS011;53960;51.826;5.850;2024-03-08T06:52:08;30.10;;;14.60;;
67053;SDS011;53960;51.826;5.850;2024-03-08T06:54:34;32.10;;;15.13;;
67053;SDS011;53960;51.826;5.850;2024-03-08T06:57:01;30.60;;;15.07;;
67053;SDS011;53960;51.826;5.850;2024-03-08T06:59:28;34.40;;;15.60;;
67053;SDS011;53960;51.826;5.850;2024-03-08T07:01:53;30.90;;;16.13;;
67053;SDS011;53960;51.826;5.850;2024-03-08T07:04:19;31.10;;;13.93;;
67053;SDS011;53960;51.826;5.850;2024-03-08T07:06:45;30.02;;;14.48;;
67053;SDS011;53960;51.826;5.850;2024-03-08T07:09:10;28.13;;;14.07;;
67053;SDS011;53960;51.826;5.850;2024-03-08T07:11:36;29.23;;;14.35;;
67053;SDS011;53960;51.826;5.850;2024-03-08T07:14:02;29.30;;;14.00;;
67053;SDS011;53960;51.826;5.850;2024-03-08T07:16:30;29.98;;;16.10;;
67053;SDS011;53960;51.826;5.850;2024-03-08T07:18:56;32.33;;;14.47;;
67053;SDS011;53960;51.826;5.850;2024-03-08T07:21:23;28.45;;;14.45;;
67053;SDS011;53960;51.826;5.850;2024-03-08T07:23:49;29.07;;;14.47;;
67053;SDS011;53960;51.826;5.850;2024-03-08T07:26:31;27.80;;;13.43;;
67053;SDS011;53960;51.826;5.850;2024-03-08T07:28:57;29.00;;;13.17;;
67053;SDS011;53960;51.826;5.850;2024-03-08T07:31:23;32.63;;;15.15;;
67053;SDS011;53960;51.826;5.850;2024-03-08T07:34:00;32.35;;;15.07;;
67053;SDS011;53960;51.826;5.850;2024-03-08T07:36:25;31.03;;;16.33;;
67053;SDS011;53960;51.826;5.850;2024-03-08T07:38:50;29.30;;;15.67;;
67053;SDS011;53960;51.826;5.850;2024-03-08T07:41:16;35.30;;;15.47;;
67053;SDS011;53960;51.826;5.850;2024-03-08T07:43:41;30.80;;;14.63;;
67053;SDS011;53960;51.826;5.850;2024-03-08T07:46:07;31.30;;;14.83;;
67053;SDS011;53960;51.826;5.850;2024-03-08T07:48:35;30.93;;;15.30;;
67053;SDS011;53960;51.826;5.850;2024-03-08T07:51:01;30.20;;;14.82;;
67053;SDS011;53960;51.826;5.850;2024-03-08T07:53:28;31.23;;;15.63;;
67053;SDS011;53960;51.826;5.850;2024-03-08T07:55:53;30.00;;;14.90;;
67053;SDS011;53960;51.826;5.850;2024-03-08T07:58:18;29.67;;;15.03;;
67053;SDS011;53960;51.826;5.850;2024-03-08T08:00:44;28.60;;;14.50;;
67053;SDS011;53960;51.826;5.850;2024-03-08T08:03:09;30.63;;;15.33;;
67053;SDS011;53960;51.826;5.850;2024-03-08T08:05:35;31.87;;;14.87;;
67053;SDS011;53960;51.826;5.850;2024-03-08T08:08:04;28.60;;;13.97;;
67053;SDS011;53960;51.826;5.850;2024-03-08T08:10:31;30.02;;;13.95;;
67053;SDS011;53960;51.826;5.850;2024-03-08T08:12:57;34.60;;;15.48;;
67053;SDS011;53960;51.826;5.850;2024-03-08T08:15:23;33.15;;;15.40;;
67053;SDS011;53960;51.826;5.850;2024-03-08T08:17:48;31.27;;;15.00;;
67053;SDS011;53960;51.826;5.850;2024-03-08T08:20:14;27.93;;;14.63;;
67053;SDS011;53960;51.826;5.850;2024-03-08T08:22:40;33.92;;;15.25;;
67053;SDS011;53960;51.826;5.850;2024-03-08T08:25:08;32.57;;;15.27;;
67053;SDS011;53960;51.826;5.850;2024-03-08T08:27:36;30.77;;;15.48;;
67053;SDS011;53960;51.826;5.850;2024-03-08T08:30:02;34.50;;;16.00;;
67053;SDS011;53960;51.826;5.850;2024-03-08T08:32:33;27.83;;;13.50;;
67053;SDS011;53960;51.826;5.850;2024-03-08T08:35:00;30.13;;;14.10;;
67053;SDS011;53960;51.826;5.850;2024-03-08T08:37:25;29.60;;;15.33;;
67053;SDS011;53960;51.826;5.850;2024-03-08T08:39:50;30.43;;;14.33;;
67053;SDS011;53960;51.826;5.850;2024-03-08T08:42:16;30.17;;;15.15;;
67053;SDS011;53960;51.826;5.850;2024-03-08T08:44:42;28.80;;;13.83;;
67053;SDS011;53960;51.826;5.850;2024-03-08T08:47:08;30.10;;;14.82;;
67053;SDS011;53960;51.826;5.850;2024-03-08T08:49:33;30.87;;;15.30;;
67053;SDS011;53960;51.826;5.850;2024-03-08T08:51:58;29.07;;;14.67;;
67053;SDS011;53960;51.826;5.850;2024-03-08T08:54:24;31.67;;;14.40;;
67053;SDS011;53960;51.826;5.850;2024-03-08T08:56:50;27.35;;;13.95;;
67053;SDS011;53960;51.826;5.850;2024-03-08T08:59:15;33.43;;;15.17;;
67053;SDS011;53960;51.826;5.850;2024-03-08T09:01:44;29.63;;;14.47;;
67053;SDS011;53960;51.826;5.850;2024-03-08T09:04:12;41.58;;;15.18;;
67053;SDS011;53960;51.826;5.850;2024-03-08T09:06:37;31.37;;;15.20;;
67053;SDS011;53960;51.826;5.850;2024-03-08T09:09:02;31.85;;;15.65;;
67053;SDS011;53960;51.826;5.850;2024-03-08T09:11:29;32.30;;;15.80;;
67053;SDS011;53960;51.826;5.850;2024-03-08T09:13:54;29.52;;;13.80;;
67053;SDS011;53960;51.826;5.850;2024-03-08T09:16:20;30.80;;;15.27;;
67053;SDS011;53960;51.826;5.850;2024-03-08T09:18:45;27.87;;;13.83;;
67053;SDS011;53960;51.826;5.850;2024-03-08T09:21:10;29.40;;;14.50;;
67053;SDS011;53960;51.826;5.850;2024-03-08T09:23:36;28.57;;;15.23;;
67053;SDS011;53960;51.826;5.850;2024-03-08T09:26:01;29.90;;;13.65;;
67053;SDS011;53960;51.826;5.850;2024-03-08T09:28:28;29.73;;;14.77;;
67053;SDS011;53960;51.826;5.850;2024-03-08T09:30:54;31.67;;;15.17;;
67053;SDS011;53960;51.826;5.850;2024-03-08T09:33:20;32.57;;;15.30;;
67053;SDS011;53960;51.826;5.850;2024-03-08T09:35:46;33.20;;;16.13;;
67053;SDS011;53960;51.826;5.850;2024-03-08T09:38:12;34.03;;;15.60;;
67053;SDS011;53960;51.826;5.850;2024-03-08T09:40:38;28.23;;;14.65;;
67053;SDS011;53960;51.826;5.850;2024-03-08T09:43:06;30.85;;;15.27;;
67053;SDS011;53960;51.826;5.850;2024-03-08T09:45:31;31.13;;;14.47;;
67053;SDS011;53960;51.826;5.850;2024-03-08T09:47:59;28.33;;;14.32;;
67053;SDS011;53960;51.826;5.850;2024-03-08T09:50:25;28.57;;;13.77;;
67053;SDS011;53960;51.826;5.850;2024-03-08T09:52:52;30.58;;;13.88;;
67053;SDS011;53960;51.826;5.850;2024-03-08T09:55:18;28.35;;;14.95;;
67053;SDS011;53960;51.826;5.850;2024-03-08T09:57:47;28.65;;;14.57;;
67053;SDS011;53960;51.826;5.850;2024-03-08T10:00:32;26.03;;;13.93;;
67053;SDS011;53960;51.826;5.850;2024-03-08T10:03:01;27.33;;;12.70;;
67053;SDS011;53960;51.826;5.850;2024-03-08T10:05:28;26.30;;;13.05;;
67053;SDS011;53960;51.826;5.850;2024-03-08T10:07:53;27.73;;;14.23;;
67053;SDS011;53960;51.826;5.850;2024-03-08T10:10:19;29.30;;;13.97;;
67053;SDS011;53960;51.826;5.850;2024-03-08T10:12:44;25.37;;;12.70;;
67053;SDS011;53960;51.826;5.850;2024-03-08T10:15:11;28.88;;;14.23;;
67053;SDS011;53960;51.826;5.850;2024-03-08T10:17:45;28.65;;;12.77;;
67053;SDS011;53960;51.826;5.850;2024-03-08T10:20:17;27.73;;;12.70;;
67053;SDS011;53960;51.826;5.850;2024-03-08T10:22:43;30.08;;;13.40;;
67053;SDS011;53960;51.826;5.850;2024-03-08T10:25:12;26.20;;;13.18;;
67053;SDS011;53960;51.826;5.850;2024-03-08T10:27:40;26.67;;;13.13;;
67053;SDS011;53960;51.826;5.850;2024-03-08T10:30:10;25.13;;;12.60;;
67053;SDS011;53960;51.826;5.850;2024-03-08T10:32:38;29.33;;;14.07;;
67053;SDS011;53960;51.826;5.850;2024-03-08T10:35:04;29.00;;;13.35;;
67053;SDS011;53960;51.826;5.850;2024-03-08T10:37:30;27.17;;;13.80;;
67053;SDS011;53960;51.826;5.850;2024-03-08T10:40:04;25.80;;;13.48;;
67053;SDS011;53960;51.826;5.850;2024-03-08T10:42:35;25.80;;;12.75;;
67053;SDS011;53960;51.826;5.850;2024-03-08T10:45:08;26.88;;;13.05;;
67053;SDS011;53960;51.826;5.850;2024-03-08T10:47:47;27.92;;;13.40;;
67053;SDS011;53960;51.826;5.850;2024-03-08T10:50:18;26.43;;;13.17;;
67053;SDS011;53960;51.826;5.850;2024-03-08T10:52:47;26.10;;;13.45;;
67053;SDS011;53960;51.826;5.850;2024-03-08T10:55:14;30.13;;;13.90;;
67053;SDS011;53960;51.826;5.850;2024-03-08T10:57:42;25.83;;;12.80;;
67053;SDS011;53960;51.826;5.850;2024-03-08T11:00:08;25.83;;;12.47;;
67053;SDS011;53960;51.826;5.850;2024-03-08T11:02:37;26.30;;;12.90;;
67053;SDS011;53960;51.826;5.850;2024-03-08T11:05:03;24.70;;;13.13;;
67053;SDS011;53960;51.826;5.850;2024-03-08T11:07:32;23.73;;;11.90;;
67053;SDS011;53960;51.826;5.850;2024-03-08T11:09:59;23.50;;;12.03;;
67053;SDS011;53960;51.826;5.850;2024-03-08T11:12:29;26.20;;;13.10;;
67053;SDS011;53960;51.826;5.850;2024-03-08T11:15:02;24.75;;;12.50;;
67053;SDS011;53960;51.826;5.850;2024-03-08T11:20:12;24.50;;;11.18;;
67053;SDS011;53960;51.826;5.850;2024-03-08T11:22:42;23.10;;;11.60;;
67053;SDS011;53960;51.826;5.850;2024-03-08T11:28:10;21.05;;;10.95;;
67053;SDS011;53960;51.826;5.850;2024-03-08T11:30:44;23.02;;;11.75;;
67053;SDS011;53960;51.826;5.850;2024-03-08T11:33:40;22.05;;;10.80;;
67053;SDS011;53960;51.826;5.850;2024-03-08T11:36:12;23.73;;;11.23;;
67053;SDS011;53960;51.826;5.850;2024-03-08T11:38:41;21.70;;;10.48;;
67053;SDS011;53960;51.826;5.850;2024-03-08T11:41:09;21.27;;;10.80;;
67053;SDS011;53960;51.826;5.850;2024-03-08T11:43:39;22.52;;;10.77;;
67053;SDS011;53960;51.826;5.850;2024-03-08T11:46:10;23.10;;;11.73;;
67053;SDS011;53960;51.826;5.850;2024-03-08T11:48:37;22.47;;;11.20;;
67053;SDS011;53960;51.826;5.850;2024-03-08T11:51:07;21.67;;;11.02;;
67053;SDS011;53960;51.826;5.850;2024-03-08T11:53:33;22.83;;;11.43;;
67053;SDS011;53960;51.826;5.850;2024-03-08T11:56:11;25.60;;;11.63;;
67053;SDS011;53960;51.826;5.850;2024-03-08T11:58:38;22.75;;;11.45;;
67053;SDS011;53960;51.826;5.850;2024-03-08T12:03:31;21.77;;;11.00;;
67053;SDS011;53960;51.826;5.850;2024-03-08T12:05:59;22.88;;;10.52;;
67053;SDS011;53960;51.826;5.850;2024-03-08T12:08:28;22.20;;;11.88;;
67053;SDS011;53960;51.826;5.850;2024-03-08T12:10:55;22.35;;;10.65;;
67053;SDS011;53960;51.826;5.850;2024-03-08T12:13:28;22.02;;;10.90;;
67053;SDS011;53960;51.826;5.850;2024-03-08T12:15:59;23.73;;;11.73;;
67053;SDS011;53960;51.826;5.850;2024-03-08T12:18:27;22.50;;;11.07;;
67053;SDS011;53960;51.826;5.850;2024-03-08T12:21:16;25.55;;;11.13;;
67053;SDS011;53960;51.826;5.850;2024-03-08T12:23:44;22.80;;;11.00;;
67053;SDS011;53960;51.826;5.850;2024-03-08T12:28:38;21.30;;;11.45;;
67053;SDS011;53960;51.826;5.850;2024-03-08T12:31:06;21.77;;;10.82;;
67053;SDS011;53960;51.826;5.850;2024-03-08T12:33:35;22.93;;;11.73;;
67053;SDS011;53960;51.826;5.850;2024-03-08T12:36:02;22.83;;;10.82;;
67053;SDS011;53960;51.826;5.850;2024-03-08T12:38:32;20.95;;;10.40;;
67053;SDS011;53960;51.826;5.850;2024-03-08T12:40:58;22.97;;;10.90;;
67053;SDS011;53960;51.826;5.850;2024-03-08T12:43:24;20.85;;;11.00;;
67053;SDS011;53960;51.826;5.850;2024-03-08T12:45:49;24.10;;;11.43;;
67053;SDS011;53960;51.826;5.850;2024-03-08T12:48:15;23.92;;;10.98;;
67053;SDS011;53960;51.826;5.850;2024-03-08T12:50:41;21.70;;;11.37;;
67053;SDS011;53960;51.826;5.850;2024-03-08T12:53:09;22.33;;;11.02;;
67053;SDS011;53960;51.826;5.850;2024-03-08T12:55:34;20.47;;;10.63;;
67053;SDS011;53960;51.826;5.850;2024-03-08T12:57:59;22.33;;;10.47;;
67053;SDS011;53960;51.826;5.850;2024-03-08T13:00:25;21.75;;;11.30;;
67053;SDS011;53960;51.826;5.850;2024-03-08T13:02:53;24.10;;;11.07;;
67053;SDS011;53960;51.826;5.850;2024-03-08T13:05:18;21.67;;;10.80;;
67053;SDS011;53960;51.826;5.850;2024-03-08T13:07:44;20.60;;;10.90;;
67053;SDS011;53960;51.826;5.850;2024-03-08T13:10:11;23.13;;;11.32;;
67053;SDS011;53960;51.826;5.850;2024-03-08T13:12:40;23.30;;;11.73;;
67053;SDS011;53960;51.826;5.850;2024-03-08T13:15:08;24.08;;;11.35;;
67053;SDS011;53960;51.826;5.850;2024-03-08T13:17:36;22.48;;;11.32;;
67053;SDS011;53960;51.826;5.850;2024-03-08T13:20:05;25.77;;;11.67;;
67053;SDS011;53960;51.826;5.850;2024-03-08T13:22:32;23.17;;;10.65;;
67053;SDS011;53960;51.826;5.850;2024-03-08T13:24:57;22.83;;;11.47;;
67053;SDS011;53960;51.826;5.850;2024-03-08T13:27:25;21.52;;;10.93;;
67053;SDS011;53960;51.826;5.850;2024-03-08T13:29:51;21.73;;;11.38;;
67053;SDS011;53960;51.826;5.850;2024-03-08T13:32:17;20.23;;;10.60;;
67053;SDS011;53960;51.826;5.850;2024-03-08T13:34:43;21.77;;;10.87;;
67053;SDS011;53960;51.826;5.850;2024-03-08T13:37:10;20.98;;;11.10;;
67053;SDS011;53960;51.826;5.850;2024-03-08T13:39:36;21.90;;;11.40;;
67053;SDS011;53960;51.826;5.850;2024-03-08T13:42:15;22.65;;;11.13;;
67053;SDS011;53960;51.826;5.850;2024-03-08T13:44:47;21.30;;;11.20;;
67053;SDS011;53960;51.826;5.850;2024-03-08T13:47:17;21.00;;;11.13;;
67053;SDS011;53960;51.826;5.850;2024-03-08T13:49:43;25.38;;;12.40;;
67053;SDS011;53960;51.826;5.850;2024-03-08T13:52:09;22.58;;;11.88;;
67053;SDS011;53960;51.826;5.850;2024-03-08T13:54:35;21.30;;;10.77;;
67053;SDS011;53960;51.826;5.850;2024-03-08T13:57:01;23.23;;;11.17;;
67053;SDS011;53960;51.826;5.850;2024-03-08T13:59:32;24.88;;;12.55;;
67053;SDS011;53960;51.826;5.850;2024-03-08T14:01:59;21.42;;;11.02;;
67053;SDS011;53960;51.826;5.850;2024-03-08T14:04:26;23.38;;;12.13;;
67053;SDS011;53960;51.826;5.850;2024-03-08T14:06:53;22.10;;;11.82;;
67053;SDS011;53960;51.826;5.850;2024-03-08T14:09:22;22.07;;;11.83;;
67053;SDS011;53960;51.826;5.850;2024-03-08T14:11:49;24.50;;;12.23;;
67053;SDS011;53960;51.826;5.850;2024-03-08T14:14:18;23.45;;;12.23;;
67053;SDS011;53960;51.826;5.850;2024-03-08T14:16:46;22.52;;;11.23;;
67053;SDS011;53960;51.826;5.850;2024-03-08T14:19:12;23.67;;;11.88;;
67053;SDS011;53960;51.826;5.850;2024-03-08T14:21:40;25.73;;;12.17;;
67053;SDS011;53960;51.826;5.850;2024-03-08T14:24:07;22.08;;;11.35;;
67053;SDS011;53960;51.826;5.850;2024-03-08T14:26:32;22.85;;;11.20;;
67053;SDS011;53960;51.826;5.850;2024-03-08T14:28:59;20.57;;;10.60;;